Latest Coastal Weather Observations for Gove Airport

IDD60701

Issued at 11:01 am CST Wednesday 25 May 2016 (issued every 10 minutes, with the page automatically refreshed every 10 minutes)

About coastal observations | Map of coastal stations | Coastal observations for NT | Marine services | Other Formats
Station Details ID: 014508 Name: GOVE AIRPORT Lat: -12.27 Lon: 136.82 Height: 51.6 m
Data from the previous 72 hours. | See also: Recent months at Gove Airport
Date/Time
CST
Temp

°C
Wind Pressure Rain
since 9am
mm
Weather Cloud Vis
km
Sea
Height
m
Swell
Dir
 
Speed
knots
Gust
knots
hPa Trend Height
m
Period
s
Dir
25/10:30am 30.1 ESE 7 10 1013.2 - 0.0 - Mostly clear 10 - - - -
25/10:00am 29.1 S 6 9 1013.2 - 0.0 - Mostly clear 10 - - - -
25/09:30am 28.9 SE 8 12 1013.2 - 0.0 - Mostly clear 10 - - - -
25/09:00am 28.6 SSE 6 9 1013.1 F 0.0 - Mostly clear 10 - - - -
25/08:30am 27.2 SSE 5 7 1013.0 - 0.0 - Mostly clear 10 - - - -
25/08:00am 26.1 S 4 5 1012.8 - 0.0 - Mostly clear 10 - - - -
25/07:30am 24.2 CALM 0 0 1012.6 - 0.0 - Mostly clear 10 - - - -
25/07:00am 22.6 CALM 0 0 1012.4 - 0.0 - Partly cloudy 10 - - - -
25/06:30am 22.3 CALM 0 0 1012.1 - 0.0 - - 10 - - - -
25/06:00am 22.4 CALM 0 0 1011.9 R 0.0 - - 10 - - - -
25/05:30am 22.5 SSE 3 3 1011.5 - 0.0 - - 10 - - - -
25/05:00am 22.5 S 3 4 1011.2 - 0.0 - - 10 - - - -
25/04:30am 22.7 CALM 0 0 1011.3 - 0.0 - - 10 - - - -
25/04:00am 23.3 CALM 0 0 1011.3 - 0.0 - - 10 - - - -
25/03:30am 23.4 CALM 0 2 1011.3 - 0.0 - - 10 - - - -
25/03:00am 23.6 ESE 3 4 1011.5 S 0.0 - - 10 - - - -
25/02:30am 24.3 SSE 3 4 1011.7 - 0.0 - - 10 - - - -
25/02:00am 24.2 SE 3 4 1012.0 - 0.0 - - 10 - - - -
25/01:30am 24.8 SSE 4 6 1012.3 - 0.0 - - 10 - - - -
25/01:00am 24.5 ESE 5 5 1012.6 - 0.0 - - 10 - - - -
25/12:30am 24.7 ESE 4 5 1012.7 - 0.0 - - 10 - - - -
25/12:00am 25.2 SSE 5 7 1012.8 F 0.0 - - 10 - - - -
 
Date/Time
CST
Temp

°C
Wind Pressure Rain
since 9am
mm
Weather Cloud Vis
km
Sea
Height
m
Swell
Dir
 
Speed
knots
Gust
knots
hPa Trend Height
m
Period
s
Dir
24/11:30pm 24.8 SSE 4 5 1012.9 - 0.0 - Partly cloudy 10 - - - -
24/11:00pm 25.0 SE 4 5 1013.0 - 0.0 - - 10 - - - -
24/10:30pm 25.5 SSE 3 5 1013.0 - 0.0 - - 10 - - - -
24/10:00pm 25.9 SSE 5 7 1013.2 - 0.0 - - 10 - - - -
24/09:30pm 25.7 SSE 5 6 1013.3 - 0.0 - - 10 - - - -
24/09:00pm 25.8 SSE 5 6 1013.1 R 0.0 - Mostly clear 10 - - - -
24/08:30pm 25.9 SE 5 5 1013.0 - 0.0 - - 10 - - - -
24/08:00pm 25.8 SSE 5 6 1012.6 - 0.0 - - 10 - - - -
24/07:30pm 25.8 SSE 4 5 1012.1 - 0.0 - - 10 - - - -
24/07:00pm 26.2 SE 4 5 1011.7 - 0.0 - - 10 - - - -
24/06:30pm 26.7 SSE 5 6 1011.3 - 0.0 - - 10 - - - -
24/06:00pm 27.4 SSE 5 8 1011.2 R 0.0 - - 10 - - - -
24/05:30pm 28.2 SSE 7 10 1010.6 - 0.0 - - 10 - - - -
24/05:00pm 28.8 SSE 8 10 1010.4 - 0.0 - - 10 - - - -
24/04:30pm 29.3 SSE 9 13 1010.3 - 0.0 - Partly cloudy 10 - - - -
24/04:00pm 30.0 SE 9 14 1010.2 - 0.0 - Mostly clear 10 - - - -
24/03:30pm 29.7 SE 9 13 1010.1 - 0.0 - Mostly clear 10 - - - -
24/03:00pm 30.4 SE 10 13 1010.0 F 0.0 - Mostly clear 10 - - - -
24/02:30pm 29.3 SSE 9 13 1010.2 - 0.0 - Mostly clear 10 - - - -
24/02:00pm 30.3 SSE 8 14 1010.4 - 0.0 - Partly cloudy 10 - - - -
24/01:30pm 29.8 SE 9 11 1010.7 - 0.0 - Partly cloudy 10 - - - -
24/01:00pm 29.4 SSE 10 15 1011.3 - 0.0 - Partly cloudy 10 - - - -
24/12:30pm 29.5 SSE 7 11 1011.9 - 0.0 - Partly cloudy 10 - - - -
24/12:00pm 30.0 SSE 8 15 1012.4 R 0.0 - Mostly cloudy 10 - - - -
24/11:30am 28.9 SSE 8 11 1012.8 - 0.0 - Mostly cloudy 10 - - - -
24/11:00am 29.0 SSE 5 8 1013.0 - 0.0 Showers Partly cloudy 10 - - - -
24/10:30am 28.8 SSE 5 8 1013.4 - 0.0 - Mostly cloudy 10 - - - -
24/10:00am 29.1 S 4 9 1013.6 - 0.0 - Partly cloudy 10 - - - -
24/09:30am 29.0 SSE 5 7 1013.3 - 0.0 - Partly cloudy 10 - - - -
24/09:00am 27.9 SSW 4 6 1013.1 R 0.2 - Mostly clear 10 - - - -
24/08:30am 26.7 SSW 5 7 1013.0 - 0.2 - Mostly clear 10 - - - -
24/08:00am 25.1 SSW 5 7 1012.5 - 0.2 - Mostly clear 10 - - - -
24/07:30am 24.8 SW 4 6 1012.3 - 0.2 - Mostly clear 10 - - - -
24/07:00am 24.0 SW 4 5 1011.9 - 0.2 - - 10 - - - -
24/06:30am 23.9 SW 5 6 1011.6 - 0.2 - - 10 - - - -
24/06:00am 23.9 SW 3 4 1011.2 F 0.2 - - 10 - - - -
24/05:30am 23.9 SW 5 6 1011.2 - 0.2 - Partly cloudy 10 - - - -
24/05:00am 24.0 SW 2 6 1011.0 - 0.2 - Partly cloudy 10 - - - -
24/04:30am 24.3 CALM 0 0 1010.9 - 0.2 - Partly cloudy 10 - - - -
24/04:00am 24.1 SW 2 5 1011.0 - 0.2 - Partly cloudy 10 - - - -
24/03:30am 24.2 CALM 0 0 1011.0 - 0.2 - - 10 - - - -
24/03:00am 24.1 SW 4 5 1011.3 R 0.2 - - 10 - - - -
24/02:30am 24.2 SW 4 5 1011.5 - 0.2 - - 10 - - - -
24/02:00am 24.3 SW 5 5 1011.6 - 0.2 - Partly cloudy 10 - - - -
24/01:30am 24.4 SSW 4 4 1011.7 - 0.2 - - 10 - - - -
24/01:00am 24.6 SSW 3 6 1011.9 - 0.2 - Partly cloudy 10 - - - -
24/12:30am 24.9 S 4 5 1012.2 - 0.2 - Partly cloudy 10 - - - -
24/12:00am 25.4 SSW 1 3 1012.3 R 0.2 - Partly cloudy 10 - - - -
 
Date/Time
CST
Temp

°C
Wind Pressure Rain
since 9am
mm
Weather Cloud Vis
km
Sea
Height
m
Swell
Dir
 
Speed
knots
Gust
knots
hPa Trend Height
m
Period
s
Dir
23/11:30pm 25.7 S 3 5 1012.2 - 0.2 - Partly cloudy 10 - - - -
23/11:00pm 25.6 SSE 4 5 1012.1 - 0.2 - Partly cloudy 10 - - - -
23/10:30pm 25.2 S 4 5 1012.4 - 0.2 - Partly cloudy 10 - - - -
23/10:00pm 24.8 SSE 3 5 1012.2 - 0.2 - - 10 - - - -
23/09:30pm 25.0 SSE 3 4 1012.3 - 0.2 - - 10 - - - -
23/09:00pm 25.3 SSE 4 5 1012.1 F 0.2 - - 10 - - - -
23/08:30pm 25.6 SSE 3 5 1012.0 - 0.2 - - 10 - - - -
23/08:05pm 25.7 S 4 5 1011.8 - 0.2 - - 10 - - - -
23/08:00pm 25.8 S 3 5 1011.7 - 0.2 - - 10 - - - -
23/07:33pm 26.1 S 3 4 1011.5 - 0.2 - - 6 - - - -
23/07:30pm 26.2 S 3 4 1011.5 - 0.2 - - 10 - - - -
23/07:00pm 26.3 S 3 4 1011.2 - 0.2 - Partly cloudy 10 - - - -
23/06:30pm 26.7 SE 3 4 1010.9 - 0.2 - Partly cloudy 10 - - - -
23/06:00pm 27.3 SSE 6 8 1010.5 R 0.2 - - 10 - - - -
23/05:30pm 27.9 SSE 7 11 1010.1 - 0.2 - - 10 - - - -
23/05:00pm 28.4 SSE 7 11 1009.7 - 0.2 - Partly cloudy 10 - - - -
23/04:30pm 29.1 SSE 8 11 1009.6 - 0.2 - Mostly clear 10 - - - -
23/04:00pm 29.6 SSE 8 12 1009.5 - 0.2 - Partly cloudy 10 - - - -
23/03:30pm 29.8 SSE 8 11 1009.4 - 0.2 - Partly cloudy 10 - - - -
23/03:00pm 29.6 SE 9 14 1009.5 F 0.2 - Mostly clear 10 - - - -
23/02:30pm 29.6 SSE 9 12 1009.8 - 0.2 - Partly cloudy 10 - - - -
23/02:00pm 29.7 SSE 9 14 1010.2 - 0.2 - Partly cloudy 10 - - - -
23/01:30pm 30.5 SSE 10 15 1010.7 - 0.2 - Partly cloudy 10 - - - -
23/01:00pm 30.4 SSE 8 13 1011.2 - 0.2 - Partly cloudy 10 - - - -
23/12:30pm 30.1 SE 11 15 1011.8 - 0.2 - Partly cloudy 10 - - - -
23/12:00pm 29.8 SSE 10 15 1012.2 F 0.2 - Mostly clear 10 - - - -
23/11:30am 30.4 SSE 10 16 1012.5 - 0.2 - Partly cloudy 10 - - - -
23/11:00am 29.2 SSE 10 14 1013.0 - 0.2 - Partly cloudy 10 - - - -
23/10:30am 30.0 SE 11 17 1013.5 - 0.0 - Partly cloudy 10 - - - -
23/10:00am 29.0 SE 9 14 1013.6 - 0.0 - Mostly clear 10 - - - -
23/09:30am 27.8 SE 8 14 1013.6 - 0.0 - Partly cloudy 10 - - - -
23/09:00am 28.3 SSE 8 12 1013.3 R 0.0 - Mostly clear 10 - - - -
23/08:30am 28.1 SE 8 12 1013.2 - 0.0 - Mostly clear 10 - - - -
23/08:00am 27.9 SSE 8 14 1012.9 - 0.0 - Mostly clear 10 - - - -
23/07:30am 26.9 SSE 5 7 1012.6 - 0.0 - Mostly clear 10 - - - -
23/07:00am 25.7 SSE 5 6 1012.2 - 0.0 - - 10 - - - -
23/06:30am 25.9 SSE 5 7 1012.0 - 0.0 - Partly cloudy 10 - - - -
23/06:00am 25.8 SSE 5 7 1011.6 S 0.0 - Partly cloudy 10 - - - -
23/05:30am 25.9 SSE 5 6 1011.4 - 0.0 - Partly cloudy 10 - - - -
23/05:00am 25.6 SSE 6 7 1011.5 - 0.0 - Partly cloudy 10 - - - -
23/04:30am 25.6 SSE 6 7 1011.3 - 0.0 - Partly cloudy 10 - - - -
23/04:00am 25.3 SE 5 6 1011.3 - 0.0 - Partly cloudy 10 - - - -
23/03:30am 25.4 SSE 5 6 1011.2 - 0.0 - Partly cloudy 10 - - - -
23/03:00am 25.4 SSE 5 7 1011.3 R 0.0 - Mostly clear 10 - - - -
23/02:30am 25.3 SSE 6 7 1011.4 - 0.0 - - 10 - - - -
23/02:00am 25.0 SSE 4 5 1011.6 - 0.0 - Partly cloudy 10 - - - -
23/01:30am 25.4 SSE 5 6 1011.5 - 0.0 - - 10 - - - -
23/01:00am 25.5 SSE 5 7 1011.6 - 0.0 - - 10 - - - -
23/12:30am 25.6 SSE 5 7 1011.7 - 0.0 - Partly cloudy 10 - - - -
23/12:00am 25.6 SSE 6 8 1011.8 F 0.0 - Cloudy 10 - - - -
 
Date/Time
CST
Temp

°C
Wind Pressure Rain
since 9am
mm
Weather Cloud Vis
km
Sea
Height
m
Swell
Dir
 
Speed
knots
Gust
knots
hPa Trend Height
m
Period
s
Dir
22/11:30pm 25.5 SSE 5 8 1012.1 - 0.0 - Partly cloudy 10 - - - -
22/11:18pm 25.5 SSE 7 10 1012.2 - 0.0 - Partly cloudy 10 - - - -
22/11:00pm 25.7 SSE 9 12 1012.3 - 0.0 - Partly cloudy 10 - - - -
22/10:35pm 26.0 SE 11 16 1012.3 - 0.0 - Partly cloudy 10 - - - -
22/10:30pm 26.0 SE 11 16 1012.2 - 0.0 - Partly cloudy 10 - - - -
22/10:28pm 26.1 SE 11 16 1012.3 - 0.0 - Partly cloudy 9 - - - -
22/10:18pm 26.1 SE 11 16 1012.3 - 0.0 - Partly cloudy 6 - - - -
22/10:00pm 26.4 SSE 4 8 1012.3 - 0.0 - Partly cloudy 10 - - - -
22/09:30pm 26.2 SE 5 7 1012.4 - 0.0 - Partly cloudy 10 - - - -
22/09:00pm 26.2 SSE 5 6 1012.5 F 0.0 - - 10 - - - -
22/08:30pm 26.3 SSE 5 6 1012.3 - 0.0 - - 10 - - - -
22/08:00pm 26.2 SSE 4 5 1011.9 - 0.0 - - 10 - - - -
22/07:30pm 26.4 SSE 4 5 1011.8 - 0.0 - - 10 - - - -
22/07:00pm 26.7 SSE 3 4 1011.6 - 0.0 - - 10 - - - -
22/06:30pm 27.1 SE 5 6 1011.6 - 0.0 - Partly cloudy 10 - - - -
22/06:00pm 28.0 ESE 4 6 1011.3 F 0.0 - Partly cloudy 10 - - - -
22/05:30pm 28.7 ESE 8 11 1011.2 - 0.0 - Partly cloudy 10 - - - -
22/05:00pm 29.5 ESE 8 11 1010.7 - 0.0 - Partly cloudy 10 - - - -
22/04:30pm 29.1 ENE 7 8 1010.6 - 0.0 - Partly cloudy 10 - - - -
22/04:00pm 29.6 E 7 9 1010.5 - 0.0 - Partly cloudy 10 - - - -
22/03:30pm 30.1 ENE 7 9 1010.5 - 0.0 - Partly cloudy 10 - - - -
22/03:00pm 30.1 E 9 11 1010.7 F 0.0 - Partly cloudy 10 - - - -
22/02:30pm 29.9 E 8 11 1010.9 - 0.0 - Partly cloudy 10 - - - -
22/02:00pm 30.1 ENE 9 12 1011.2 - 0.0 - Partly cloudy 10 - - - -
22/01:30pm 30.9 ENE 9 13 1011.3 - 0.0 - Partly cloudy 10 - - - -
22/01:00pm 30.6 E 9 13 1012.1 - 0.0 - Partly cloudy 10 - - - -
22/12:30pm 29.9 ENE 9 13 1012.3 - 0.0 - Partly cloudy 10 - - - -
22/12:00pm 29.7 E 9 11 1012.6 F 0.0 - Cloudy 10 - - - -
22/11:30am 29.9 ENE 8 11 1012.8 - 0.0 - Partly cloudy 10 - - - -

Other Formats:

Comma delimited format used in spreadsheet applications
http://www.bom.gov.au/fwo/IDD60701/IDD60701.94150.axf

JavaScript Object Notation format (JSON) in row-major order
http://www.bom.gov.au/fwo/IDD60701/IDD60701.94150.json